Time;durP1;ratioP1;P1;durP2;ratioP2;P2;SDS_P1;SDS_P2;PMS_P1;PMS_P2;Temp;Humidity;BMP_temperature;BMP_pressure;BME280_temperature;BME280_humidity;BME280_pressure;Samples;Min_cycle;Max_cycle;Signal;HPM_P1;HPM_P2
2023/07/28 00:02:43;;;;;;;;;;;;;;;24.28;40.80;99612.33;2290382;76;50598;-76
2023/07/28 00:05:44;;;;;;;;;;;;;;;24.27;40.81;99607.42;2233197;76;51603;-77
2023/07/28 00:08:46;;;;;;;;;;;;;;;24.27;40.80;99603.38;2290392;76;51548;-76
2023/07/28 00:11:47;;;;;;;;;;;;;;;24.27;40.80;99606.08;2258656;77;51352;-76
2023/07/28 00:14:49;;;;;;;;;;;;;;;24.27;40.80;99584.98;2257484;76;51394;-76
2023/07/28 00:17:51;;;;;;;;;;;;;;;24.26;40.83;99589.58;2257537;77;51522;-76
2023/07/28 00:20:52;;;;;;;;;;;;;;;24.27;40.82;99595.26;2298059;76;51366;-76
2023/07/28 00:23:54;;;;;;;;;;;;;;;24.27;40.82;99583.64;2257347;77;51369;-76
2023/07/28 00:26:55;;;;;;;;;;;;;;;24.27;40.82;99579.58;2289692;76;51430;-77
2023/07/28 00:29:57;;;;;;;;;;;;;;;24.25;40.83;99575.79;2257752;76;49528;-76
2023/07/28 00:32:58;;;;;;;;;;;;;;;24.26;40.83;99572.55;2257464;77;50105;-76
2023/07/28 00:36:00;;;;;;;;;;;;;;;24.26;40.85;99571.20;2257413;76;51385;-75
2023/07/28 00:39:02;;;;;;;;;;;;;;;24.25;40.84;99563.62;2257421;77;50856;-76
2023/07/28 00:42:03;;;;;;;;;;;;;;;24.25;40.85;99560.08;2232588;77;52206;-76
2023/07/28 00:45:06;;;;;;;;;;;;;;;24.25;40.86;99554.16;2257395;76;51525;-76
2023/07/28 00:48:09;;;;;;;;;;;;;;;24.25;40.83;99557.38;2298146;76;51315;-76
2023/07/28 00:51:10;;;;;;;;;;;;;;;24.24;40.87;99561.97;2306003;77;51416;-78
2023/07/28 00:54:12;;;;;;;;;;;;;;;24.24;40.86;99560.62;2280222;77;51364;-76
2023/07/28 00:57:14;;;;;;;;;;;;;;;24.24;40.88;99562.51;2277424;77;51338;-76
2023/07/28 01:00:15;;;;;;;;;;;;;;;24.24;40.88;99559.80;2271184;77;50146;-76
2023/07/28 01:03:17;;;;;;;;;;;;;;;24.23;40.87;99548.72;2270925;77;51380;-76
2023/07/28 01:06:21;;;;;;;;;;;;;;;24.22;40.89;99559.23;2270459;77;51491;-76
2023/07/28 01:09:23;;;;;;;;;;;;;;;24.22;40.90;99544.36;2276779;77;50508;-75
2023/07/28 01:12:25;;;;;;;;;;;;;;;24.23;40.90;99550.88;2277566;77;50723;-75
2023/07/28 01:15:26;;;;;;;;;;;;;;;24.23;40.90;99544.66;2277487;77;50179;-76
2023/07/28 01:18:28;;;;;;;;;;;;;;;24.22;40.90;99541.66;2268665;77;51227;-76
2023/07/28 01:21:30;;;;;;;;;;;;;;;24.22;40.93;99537.60;2313968;77;50230;-75
2023/07/28 01:24:40;;;;;;;;;;;;;;;24.23;40.90;99540.61;2314034;77;51430;-76
2023/07/28 01:27:42;;;;;;;;;;;;;;;24.22;40.94;99540.30;2313524;75;50773;-76
2023/07/28 01:30:44;;;;;;;;;;;;;;;24.21;41.00;99534.63;2307573;77;51754;-76
2023/07/28 01:33:45;;;;;;;;;;;;;;;24.21;41.04;99535.98;2316346;76;50194;-76
2023/07/28 01:36:47;;;;;;;;;;;;;;;24.21;41.03;99527.33;2296334;76;49971;-76
2023/07/28 01:39:49;;;;;;;;;;;;;;;24.21;41.03;99532.73;2320528;76;50225;-76
2023/07/28 01:42:50;;;;;;;;;;;;;;;24.21;41.08;99531.92;2270592;76;51696;-76
2023/07/28 01:45:52;;;;;;;;;;;;;;;24.21;41.05;99530.58;2320384;75;50672;-76
2023/07/28 01:48:53;;;;;;;;;;;;;;;24.21;41.09;99527.87;2300031;76;51493;-76
2023/07/28 01:51:55;;;;;;;;;;;;;;;24.20;41.08;99532.97;2284967;76;50663;-76
2023/07/28 01:54:56;;;;;;;;;;;;;;;24.20;41.13;99539.73;2278405;77;50637;-76
2023/07/28 01:57:58;;;;;;;;;;;;;;;24.21;41.13;99533.27;2278395;77;50657;-75
2023/07/28 02:01:00;;;;;;;;;;;;;;;24.20;41.18;99532.47;2278525;77;50731;-75
2023/07/28 02:04:02;;;;;;;;;;;;;;;24.20;41.20;99531.62;2278611;77;50205;-76
2023/07/28 02:07:03;;;;;;;;;;;;;;;24.20;41.22;99530.27;2258531;77;52275;-76
2023/07/28 02:10:05;;;;;;;;;;;;;;;24.20;41.20;99531.62;2258782;78;51361;-76
2023/07/28 02:13:07;;;;;;;;;;;;;;;24.21;41.21;99530.58;2259033;77;50076;-75
2023/07/28 02:16:08;;;;;;;;;;;;;;;24.19;41.34;99528.64;2258345;78;50142;-75
2023/07/28 02:19:10;;;;;;;;;;;;;;;24.20;41.38;99535.67;2287417;76;51572;-76
2023/07/28 02:22:12;;;;;;;;;;;;;;;24.19;41.37;99532.16;2271394;77;50655;-76
2023/07/28 02:25:14;;;;;;;;;;;;;;;24.20;41.34;99532.97;2281427;76;50695;-76
2023/07/28 02:28:15;;;;;;;;;;;;;;;24.19;41.39;99530.00;2281474;76;51385;-76
2023/07/28 02:31:17;;;;;;;;;;;;;;;24.20;41.51;99537.03;2269928;78;51624;-76
2023/07/28 02:34:18;;;;;;;;;;;;;;;24.20;41.57;99539.22;2281376;76;51527;-76
2023/07/28 02:37:20;;;;;;;;;;;;;;;24.19;41.60;99535.41;2269409;77;51492;-77
2023/07/28 02:40:21;;;;;;;;;;;;;;;24.19;41.57;99528.64;2281218;77;51301;-77
2023/07/28 02:43:23;;;;;;;;;;;;;;;24.19;41.68;99526.75;2269840;78;50360;-76
2023/07/28 02:46:25;;;;;;;;;;;;;;;24.19;41.78;99519.19;2281527;76;50392;-76
2023/07/28 02:49:27;;;;;;;;;;;;;;;24.19;41.65;99523.23;2298323;76;51655;-76
2023/07/28 02:52:29;;;;;;;;;;;;;;;24.19;41.66;99522.70;2295251;76;51303;-75
2023/07/28 02:55:30;;;;;;;;;;;;;;;24.18;41.67;99515.67;2270020;75;52274;-76
2023/07/28 02:58:32;;;;;;;;;;;;;;;24.18;41.73;99514.86;2295216;76;50262;-76
2023/07/28 03:01:35;;;;;;;;;;;;;;;24.18;41.75;99510.27;2295637;76;51497;-76
2023/07/28 03:04:36;;;;;;;;;;;;;;;24.18;41.85;99512.16;2295616;76;50285;-76
2023/07/28 03:07:38;;;;;;;;;;;;;;;24.16;41.94;99508.34;2269754;76;51579;-75
2023/07/28 03:10:39;;;;;;;;;;;;;;;24.17;41.87;99511.85;2295419;76;51418;-76
2023/07/28 03:13:41;;;;;;;;;;;;;;;24.17;41.87;99524.02;2295566;76;53500;-76
2023/07/28 03:16:42;;;;;;;;;;;;;;;24.18;42.07;99515.67;2295355;76;51459;-75
2023/07/28 03:19:44;;;;;;;;;;;;;;;24.17;42.73;99518.61;2258900;76;53195;-76
2023/07/28 03:22:46;;;;;;;;;;;;;;;24.17;42.34;99524.83;2278945;77;51503;-75
2023/07/28 03:25:48;;;;;;;;;;;;;;;24.18;42.24;99527.83;2279324;76;51554;-76
2023/07/28 03:28:49;;;;;;;;;;;;;;;24.19;42.13;99532.70;2279508;77;50574;-76
2023/07/28 03:31:51;;;;;;;;;;;;;;;24.18;42.17;99537.30;2279234;77;52563;-76
2023/07/28 03:34:53;;;;;;;;;;;;;;;24.17;42.17;99537.53;2278665;77;51496;-76
2023/07/28 03:37:54;;;;;;;;;;;;;;;24.17;42.19;99536.17;2278736;77;50585;-76
2023/07/28 03:40:56;;;;;;;;;;;;;;;24.18;42.15;99535.13;2278616;77;50230;-76
2023/07/28 03:43:57;;;;;;;;;;;;;;;24.17;42.16;99534.82;2278539;77;51080;-77
2023/07/28 03:46:59;;;;;;;;;;;;;;;24.17;42.27;99549.15;2300361;76;51404;-76
2023/07/28 03:50:00;;;;;;;;;;;;;;;24.16;42.43;99538.60;2301925;76;51447;-76
2023/07/28 03:53:02;;;;;;;;;;;;;;;24.16;42.46;99548.88;2319738;76;51336;-77
2023/07/28 03:56:04;;;;;;;;;;;;;;;24.17;42.44;99549.69;2295568;76;51385;-76
2023/07/28 03:59:05;;;;;;;;;;;;;;;24.17;42.52;99555.91;2295485;76;51495;-74
2023/07/28 04:02:07;;;;;;;;;;;;;;;24.17;42.55;99553.74;2319838;76;51359;-77
2023/07/28 04:05:09;;;;;;;;;;;;;;;24.16;42.63;99546.71;2319855;75;51535;-76
2023/07/28 04:08:10;;;;;;;;;;;;;;;24.17;42.47;99553.74;2270002;76;51163;-76
2023/07/28 04:11:12;;;;;;;;;;;;;;;24.15;42.52;99559.92;2295637;76;50190;-76
2023/07/28 04:14:14;;;;;;;;;;;;;;;24.17;42.63;99540.23;2295566;76;50311;-77
2023/07/28 04:17:15;;;;;;;;;;;;;;;24.16;42.89;99548.88;2319654;75;52265;-76
2023/07/28 04:20:17;;;;;;;;;;;;;;;24.16;42.94;99566.45;2264760;76;51183;-77
2023/07/28 04:23:19;;;;;;;;;;;;;;;24.17;42.97;99573.48;2319844;76;50222;-76
2023/07/28 04:26:20;;;;;;;;;;;;;;;24.17;42.77;99568.61;2295253;76;51418;-76
2023/07/28 04:29:22;;;;;;;;;;;;;;;24.16;42.62;99562.93;2320006;76;51553;-76
2023/07/28 04:32:24;;;;;;;;;;;;;;;24.16;42.61;99573.73;2319831;76;51329;-77
2023/07/28 04:35:26;;;;;;;;;;;;;;;24.16;42.63;99566.45;2299216;75;50451;-76
2023/07/28 04:38:27;;;;;;;;;;;;;;;24.16;42.61;99560.22;2330968;76;51379;-77
2023/07/28 04:41:29;;;;;;;;;;;;;;;24.17;42.58;99560.50;2331191;76;51418;-76
2023/07/28 04:44:30;;;;;;;;;;;;;;;24.17;42.61;99557.26;2312318;76;52334;-76
2023/07/28 04:47:32;;;;;;;;;;;;;;;24.17;42.64;99561.85;2296913;76;51497;-77
2023/07/28 04:50:34;;;;;;;;;;;;;;;24.16;42.68;99561.58;2272438;76;51349;-76
2023/07/28 04:53:35;;;;;;;;;;;;;;;24.16;42.83;99558.87;2289217;77;51452;-75
2023/07/28 04:56:37;;;;;;;;;;;;;;;24.16;43.09;99565.63;2256391;77;52280;-75
2023/07/28 04:59:38;;;;;;;;;;;;;;;24.15;43.15;99563.97;2256621;77;51427;-74
2023/07/28 05:02:40;;;;;;;;;;;;;;;24.14;43.04;99557.76;2256749;77;50233;-75
2023/07/28 05:05:45;;;;;;;;;;;;;;;24.15;43.30;99559.41;2256634;76;50212;-75
2023/07/28 05:08:46;;;;;;;;;;;;;;;24.15;43.25;99558.57;2289257;77;50363;-75
2023/07/28 05:11:48;;;;;;;;;;;;;;;24.13;43.31;99567.75;2289650;77;50323;-76
2023/07/28 05:14:49;;;;;;;;;;;;;;;24.14;43.28;99567.22;2256847;77;50183;-75
2023/07/28 05:17:51;;;;;;;;;;;;;;;24.13;43.29;99569.11;2258314;76;50681;-75
2023/07/28 05:20:52;;;;;;;;;;;;;;;24.16;43.45;99579.14;2306041;76;50081;-76
2023/07/28 05:23:54;;;;;;;;;;;;;;;24.15;43.38;99578.84;2297361;76;51370;-75
2023/07/28 05:26:56;;;;;;;;;;;;;;;24.13;43.31;99580.45;2296850;76;51438;-76
2023/07/28 05:29:57;;;;;;;;;;;;;;;24.14;43.20;99579.38;2331093;76;51351;-75
2023/07/28 05:32:59;;;;;;;;;;;;;;;24.13;43.12;99583.97;2271677;76;51746;-75
2023/07/28 05:36:01;;;;;;;;;;;;;;;24.15;43.30;99581.55;2296899;76;49994;-75
2023/07/28 05:39:03;;;;;;;;;;;;;;;24.14;43.33;99580.73;2330844;76;51436;-75
2023/07/28 05:42:05;;;;;;;;;;;;;;;24.15;43.53;99586.95;2297415;76;50588;-76
2023/07/28 05:45:07;;;;;;;;;;;;;;;24.15;43.47;99592.35;2271915;75;51136;-76
2023/07/28 05:48:08;;;;;;;;;;;;;;;24.14;43.50;99583.44;2291476;76;50360;-76
2023/07/28 05:51:10;;;;;;;;;;;;;;;24.13;43.47;99589.37;2303360;76;50347;-76
2023/07/28 05:54:14;;;;;;;;;;;;;;;24.15;43.61;99586.95;2256479;77;50283;-76
2023/07/28 05:57:15;;;;;;;;;;;;;;;24.15;43.88;99585.59;2289468;76;22370;-75
2023/07/28 06:00:17;;;;;;;;;;;;;;;24.13;43.79;99588.56;2256579;77;50735;-75
2023/07/28 06:03:19;;;;;;;;;;;;;;;24.14;43.95;99602.35;2289171;77;50159;-75
2023/07/28 06:06:20;;;;;;;;;;;;;;;24.12;44.20;99600.42;2256147;77;49901;-76
2023/07/28 06:09:22;;;;;;;;;;;;;;;24.13;44.07;99598.02;2231915;77;50887;-76
2023/07/28 06:12:24;;;;;;;;;;;;;;;24.15;44.03;99607.22;2256529;77;51408;-75
2023/07/28 06:15:26;;;;;;;;;;;;;;;24.14;44.06;99610.46;2256790;76;50638;-75
2023/07/28 06:18:27;;;;;;;;;;;;;;;24.12;43.97;99609.38;2256447;77;50171;-76
2023/07/28 06:21:29;;;;;;;;;;;;;;;24.13;43.80;99621.81;2293896;76;51089;-76
2023/07/28 06:24:30;;;;;;;;;;;;;;;24.12;43.70;99624.23;2299660;76;50685;-75
2023/07/28 06:27:32;;;;;;;;;;;;;;;24.12;43.82;99634.20;2299247;76;50326;-76
2023/07/28 06:30:33;;;;;;;;;;;;;;;24.12;43.81;99631.00;2299568;76;51683;-76
2023/07/28 06:33:36;;;;;;;;;;;;;;;24.12;43.75;99631.00;2273974;76;51641;-75
2023/07/28 06:36:38;;;;;;;;;;;;;;;24.13;43.77;99639.92;2303992;76;50257;-75
2023/07/28 06:39:39;;;;;;;;;;;;;;;24.12;44.33;99651.27;2309151;76;50195;-75
2023/07/28 06:42:41;;;;;;;;;;;;;;;24.12;44.09;99653.97;2309198;76;50581;-75
2023/07/28 06:45:42;;;;;;;;;;;;;;;24.13;43.99;99654.24;2309296;74;51127;-74
2023/07/28 06:48:44;;;;;;;;;;;;;;;24.12;44.00;99653.97;2337527;75;50298;-74
2023/07/28 06:51:46;;;;;;;;;;;;;;;24.12;43.92;99658.53;2331283;76;50579;-75
2023/07/28 06:54:49;;;;;;;;;;;;;;;24.12;44.26;99660.72;2330027;76;52462;-74
2023/07/28 06:57:50;;;;;;;;;;;;;;;24.13;44.29;99654.24;2273116;76;52617;-74
2023/07/28 07:00:53;;;;;;;;;;;;;;;24.13;44.40;99653.43;2298731;76;50673;-74
2023/07/28 07:03:55;;;;;;;;;;;;;;;24.12;44.37;99662.58;2329976;76;51475;-75
2023/07/28 07:06:57;;;;;;;;;;;;;;;24.12;44.42;99668.83;2329723;75;51436;-74
2023/07/28 07:09:59;;;;;;;;;;;;;;;24.13;44.27;99667.75;2273436;76;51664;-76
2023/07/28 07:13:01;;;;;;;;;;;;;;;24.13;44.16;99665.59;2298645;76;50618;-75
2023/07/28 07:16:02;;;;;;;;;;;;;;;24.15;44.12;99669.38;2330025;75;50442;-75
2023/07/28 07:19:04;;;;;;;;;;;;;;;24.13;44.20;99668.30;2314061;76;50188;-75
2023/07/28 07:22:06;;;;;;;;;;;;;;;24.16;44.45;99672.39;2283795;77;51628;-75
2023/07/28 07:25:07;;;;;;;;;;;;;;;24.14;44.45;99680.73;2273284;77;50051;-77
2023/07/28 07:28:09;;;;;;;;;;;;;;;24.17;44.23;99676.72;2294168;77;51367;-76
2023/07/28 07:31:14;;;;;;;;;;;;;;;24.15;44.14;99674.28;2273413;77;50534;-76
2023/07/28 07:34:15;;;;;;;;;;;;;;;24.16;44.29;99681.85;2273122;77;51151;-76
2023/07/28 07:37:17;;;;;;;;;;;;;;;24.17;44.17;99684.83;2262309;78;50528;-75
2023/07/28 07:40:19;;;;;;;;;;;;;;;24.17;44.20;99682.13;2283576;76;50023;-77
2023/07/28 07:43:21;;;;;;;;;;;;;;;24.21;44.15;99684.65;2283601;76;50719;-75
2023/07/28 07:46:23;;;;;;;;;;;;;;;24.21;44.21;99681.94;2228750;78;51679;-74
2023/07/28 07:49:24;;;;;;;;;;;;;;;24.23;44.08;99685.23;2266502;76;50601;-76
2023/07/28 07:52:26;;;;;;;;;;;;;;;24.23;44.13;99679.82;2329039;76;50758;-75
2023/07/28 07:55:28;;;;;;;;;;;;;;;24.21;44.17;99684.11;2297314;76;50375;-75
2023/07/28 07:58:29;;;;;;;;;;;;;;;24.25;44.27;99686.63;2296943;76;49422;-77
2023/07/28 08:01:31;;;;;;;;;;;;;;;24.26;44.11;99698.25;2329022;76;50203;-76
2023/07/28 08:04:32;;;;;;;;;;;;;;;24.26;44.15;99708.53;2328867;76;50559;-75
2023/07/28 08:07:34;;;;;;;;;;;;;;;24.27;44.23;99703.39;2328689;76;50700;-76
2023/07/28 08:10:36;;;;;;;;;;;;;;;24.30;44.27;99702.09;2297225;76;51262;-76
2023/07/28 08:13:38;;;;;;;;;;;;;;;24.28;44.31;99700.19;2297680;76;50708;-76
2023/07/28 08:16:39;;;;;;;;;;;;;;;24.32;44.25;99706.19;2329035;76;51359;-74
2023/07/28 08:19:41;;;;;;;;;;;;;;;24.28;44.41;99691.53;2292223;76;51411;-75
2023/07/28 08:22:43;;;;;;;;;;;;;;;24.33;44.29;99698.92;2294786;76;51689;-76
2023/07/28 08:25:44;;;;;;;;;;;;;;;24.37;44.23;99698.70;2297166;76;50567;-76
2023/07/28 08:28:46;;;;;;;;;;;;;;;24.43;44.32;99709.06;2297317;76;51469;-75
2023/07/28 08:31:47;;;;;;;;;;;;;;;24.35;44.61;99711.64;2297699;76;51481;-76
2023/07/28 08:34:49;;;;;;;;;;;;;;;24.32;44.69;99717.00;2329770;76;51395;-75
2023/07/28 08:37:51;;;;;;;;;;;;;;;24.32;44.57;99731.06;2267857;76;51766;-77
2023/07/28 08:40:52;;;;;;;;;;;;;;;24.34;44.56;99726.23;2337443;76;50505;-77
2023/07/28 08:43:54;;;;;;;;;;;;;;;24.36;44.61;99719.24;2337379;76;50709;-75
2023/07/28 08:46:55;;;;;;;;;;;;;;;24.34;44.82;99720.83;2336109;75;50465;-74
2023/07/28 08:49:57;;;;;;;;;;;;;;;24.34;44.74;99726.23;2315851;76;49981;-76
2023/07/28 08:52:59;;;;;;;;;;;;;;;24.36;44.73;99730.88;2334708;75;50372;-76
2023/07/28 08:56:01;;;;;;;;;;;;;;;24.37;44.67;99733.85;2302995;76;51508;-76
2023/07/28 08:59:03;;;;;;;;;;;;;;;24.37;44.83;99723.03;2334432;75;50636;-76
2023/07/28 09:02:06;;;;;;;;;;;;;;;24.32;44.83;99737.28;2302701;76;50219;-76
2023/07/28 09:05:08;;;;;;;;;;;;;;;24.32;44.91;99744.58;2303180;75;50666;-77
2023/07/28 09:08:09;;;;;;;;;;;;;;;24.33;44.90;99745.70;2334652;75;50401;-76
2023/07/28 09:11:13;;;;;;;;;;;;;;;24.34;45.00;99750.56;2334775;75;50621;-75
2023/07/28 09:14:16;;;;;;;;;;;;;;;24.32;44.96;99751.33;2334767;75;51434;-77
2023/07/28 09:17:17;;;;;;;;;;;;;;;24.32;44.95;99752.69;2302888;76;50277;-75
2023/07/28 09:20:20;;;;;;;;;;;;;;;24.33;44.89;99744.88;2313847;74;50640;-76
2023/07/28 09:23:31;;;;;;;;;;;;;;;24.34;44.93;99755.44;2315483;76;50248;-76
2023/07/28 09:26:46;;;;;;;;;;;;;;;24.35;44.92;99760.30;2289460;75;51710;-76
2023/07/28 09:29:51;;;;;;;;;;;;;;;24.33;44.90;99760.56;2337802;76;50282;-77
2023/07/28 09:32:53;;;;;;;;;;;;;;;24.36;45.00;99766.02;2315949;76;50218;-75
2023/07/28 09:35:55;;;;;;;;;;;;;;;24.35;45.06;99764.36;2337704;75;50648;-75
2023/07/28 09:38:56;;;;;;;;;;;;;;;24.36;45.08;99766.02;2315216;75;50677;-76
2023/07/28 09:41:59;;;;;;;;;;;;;;;24.37;45.10;99774.95;2337124;76;51362;-76
2023/07/28 09:45:01;;;;;;;;;;;;;;;24.37;45.33;99783.88;2315489;75;50081;-76
2023/07/28 09:48:03;;;;;;;;;;;;;;;24.39;45.46;99775.53;2307340;76;50228;-76
2023/07/28 09:51:06;;;;;;;;;;;;;;;24.41;45.47;99770.17;2306764;76;51618;-76
2023/07/28 09:54:15;;;;;;;;;;;;;;;24.40;45.66;99771.21;2335854;76;50634;-74
2023/07/28 09:57:19;;;;;;;;;;;;;;;24.40;45.71;99771.75;2336537;75;50123;-76
2023/07/28 10:00:21;;;;;;;;;;;;;;;24.40;45.83;99764.99;2337059;75;50108;-75
2023/07/28 10:03:23;;;;;;;;;;;;;;;24.42;45.90;99788.02;2337084;75;50686;-75
2023/07/28 10:06:24;;;;;;;;;;;;;;;24.42;45.75;99770.44;2337043;75;50601;-77
2023/07/28 10:09:26;;;;;;;;;;;;;;;24.44;45.87;99781.03;2337486;75;50645;-76
2023/07/28 10:12:28;;;;;;;;;;;;;;;24.46;45.97;99784.34;2337662;75;50632;-75
2023/07/28 10:15:30;;;;;;;;;;;;;;;24.47;45.80;99773.27;2315614;75;52393;-76
2023/07/28 10:18:32;;;;;;;;;;;;;;;24.45;45.83;99784.04;2315798;76;50299;-74
2023/07/28 10:21:34;;;;;;;;;;;;;;;24.45;45.88;99788.91;2317782;76;51537;-76
2023/07/28 10:24:52;;;;;;;;;;;;;;;24.39;46.31;99777.70;2261171;76;50654;-75
2023/07/28 10:27:54;;;;;;;;;;;;;;;24.36;46.75;99767.38;2261528;77;51705;-76
2023/07/28 10:30:55;;;;;;;;;;;;;;;24.36;46.87;99776.02;2262304;76;50032;-75
2023/07/28 10:33:57;;;;;;;;;;;;;;;24.38;46.73;99784.69;2294849;76;50572;-75
2023/07/28 10:36:59;;;;;;;;;;;;;;;24.36;46.59;99797.66;2261789;77;50636;-75
2023/07/28 10:40:21;;;;;;;;;;;;;;;24.36;46.35;99809.28;2261880;77;52584;-77
2023/07/28 10:43:22;;;;;;;;;;;;;;;24.38;46.25;99811.22;2294188;77;22327;-74
2023/07/28 10:46:23;;;;;;;;;;;;;;;24.41;46.34;99814.78;2293426;76;51453;-75
2023/07/28 10:49:26;;;;;;;;;;;;;;;24.43;46.32;99803.70;2321209;76;51411;-76
2023/07/28 10:52:27;;;;;;;;;;;;;;;24.42;46.26;99801.55;2316217;76;51163;-75
2023/07/28 10:55:29;;;;;;;;;;;;;;;24.45;46.33;99801.08;2316461;76;51444;-75
2023/07/28 10:58:35;;;;;;;;;;;;;;;24.49;46.05;99804.14;2316443;76;50575;-76
2023/07/28 11:01:37;;;;;;;;;;;;;;;24.44;46.73;99802.13;2337856;76;50579;-75
2023/07/28 11:04:39;;;;;;;;;;;;;;;24.40;47.06;99805.02;2314981;76;52404;-75
2023/07/28 11:07:42;;;;;;;;;;;;;;;24.40;47.19;99804.20;2336284;76;52295;-75
2023/07/28 11:10:44;;;;;;;;;;;;;;;24.41;47.07;99803.97;2336551;75;50388;-75
2023/07/28 11:13:46;;;;;;;;;;;;;;;24.37;47.09;99810.09;2336634;75;51441;-76
2023/07/28 11:16:47;;;;;;;;;;;;;;;24.45;46.60;99796.21;2314144;76;52320;-75
2023/07/28 11:19:49;;;;;;;;;;;;;;;24.42;46.43;99813.70;2335984;75;51428;-75
2023/07/28 11:22:54;;;;;;;;;;;;;;;24.43;46.23;99826.69;2334502;76;49894;-75
2023/07/28 11:25:56;;;;;;;;;;;;;;;24.45;46.09;99818.66;2334638;75;50748;-76
2023/07/28 11:28:57;;;;;;;;;;;;;;;24.42;46.26;99823.71;2313079;76;51627;-75
2023/07/28 11:31:59;;;;;;;;;;;;;;;24.42;46.12;99835.34;2334635;76;50224;-75
2023/07/28 11:35:05;;;;;;;;;;;;;;;24.40;46.08;99842.88;2334553;75;50223;-75
2023/07/28 11:38:07;;;;;;;;;;;;;;;24.41;46.11;99842.36;2326603;76;51482;-74
2023/07/28 11:41:09;;;;;;;;;;;;;;;24.40;46.09;99851.52;2313565;77;51589;-75
2023/07/28 11:44:11;;;;;;;;;;;;;;;24.41;45.99;99851.29;2313418;77;51458;-75
2023/07/28 11:47:14;;;;;;;;;;;;;;;24.41;45.91;99847.23;2313187;75;51499;-75
2023/07/28 11:50:17;;;;;;;;;;;;;;;24.44;45.86;99844.58;2315893;75;51446;-75
2023/07/28 11:53:19;;;;;;;;;;;;;;;24.44;45.82;99850.80;2233475;79;52584;-75
2023/07/28 11:56:20;;;;;;;;;;;;;;;24.45;45.86;99842.18;2254290;77;50227;-75
2023/07/28 11:59:22;;;;;;;;;;;;;;;24.45;45.75;99859.76;2254512;77;50619;-75
2023/07/28 12:02:27;;;;;;;;;;;;;;;24.43;45.83;99864.55;2254826;78;50267;-75
2023/07/28 12:05:29;;;;;;;;;;;;;;;24.44;45.71;99864.32;2284127;77;52563;-75
2023/07/28 12:08:39;;;;;;;;;;;;;;;24.47;45.64;99876.03;2254597;79;51461;-75
2023/07/28 12:11:42;;;;;;;;;;;;;;;24.48;45.62;99870.09;2257550;78;50353;-75
2023/07/28 12:14:50;;;;;;;;;;;;;;;24.48;45.59;99876.34;2254638;77;51968;-75
2023/07/28 12:18:06;;;;;;;;;;;;;;;24.46;45.64;99878.46;2259883;77;22270;-75
2023/07/28 12:21:07;;;;;;;;;;;;;;;24.45;45.57;99884.91;2302349;76;51497;-75
2023/07/28 12:24:09;;;;;;;;;;;;;;;24.47;45.58;99880.63;2300498;77;50661;-76
2023/07/28 12:27:12;;;;;;;;;;;;;;;24.44;45.71;99877.84;2300185;76;51430;-75
2023/07/28 12:30:14;;;;;;;;;;;;;;;24.45;45.63;99874.63;2300901;76;23247;-75
2023/07/28 12:33:15;;;;;;;;;;;;;;;24.46;45.55;99874.41;2269683;77;51559;-75
2023/07/28 12:36:17;;;;;;;;;;;;;;;24.46;45.64;99884.41;2269223;76;51476;-75
2023/07/28 12:39:19;;;;;;;;;;;;;;;24.42;45.85;99887.26;2288871;77;50575;-75
2023/07/28 12:42:21;;;;;;;;;;;;;;;24.39;45.91;99899.91;2257976;77;51194;-75
2023/07/28 12:45:25;;;;;;;;;;;;;;;24.43;45.79;99905.11;2258374;77;50590;-75
2023/07/28 12:48:26;;;;;;;;;;;;;;;24.44;45.73;99907.59;2291083;76;22324;-75
2023/07/28 12:51:27;;;;;;;;;;;;;;;24.44;45.66;99917.59;2287002;76;51510;-75
2023/07/28 12:54:29;;;;;;;;;;;;;;;24.44;45.64;99923.00;2307939;76;50972;-75
2023/07/28 12:57:30;;;;;;;;;;;;;;;24.45;45.63;99918.72;2295100;76;51524;-74
2023/07/28 13:00:32;;;;;;;;;;;;;;;24.47;45.58;99917.95;2319560;76;51458;-74
2023/07/28 13:03:33;;;;;;;;;;;;;;;24.46;45.65;99916.32;2319433;76;50759;-74
2023/07/28 13:06:36;;;;;;;;;;;;;;;24.45;45.77;99909.79;2294935;76;50621;-75
2023/07/28 13:09:38;;;;;;;;;;;;;;;24.44;45.70;99915.70;2319524;76;50251;-74
2023/07/28 13:12:39;;;;;;;;;;;;;;;24.43;45.81;99912.72;2319685;76;50250;-74
2023/07/28 13:15:41;;;;;;;;;;;;;;;24.44;45.71;99921.11;2295298;75;51407;-75
2023/07/28 13:18:43;;;;;;;;;;;;;;;24.44;45.75;99916.23;2319994;76;50031;-75
2023/07/28 13:21:44;;;;;;;;;;;;;;;24.44;45.70;99925.16;2304604;76;51435;-75
2023/07/28 13:24:46;;;;;;;;;;;;;;;24.41;45.90;99923.48;2298954;76;51337;-75
2023/07/28 13:27:49;;;;;;;;;;;;;;;24.44;45.72;99928.41;2298832;76;51388;-76
2023/07/28 13:30:50;;;;;;;;;;;;;;;24.45;45.73;99924.13;2299028;76;51258;-75
2023/07/28 13:33:52;;;;;;;;;;;;;;;24.48;45.61;99934.48;2333351;76;50271;-75
2023/07/28 13:36:55;;;;;;;;;;;;;;;24.49;45.63;99932.06;2332979;75;50349;-76
2023/07/28 13:39:57;;;;;;;;;;;;;;;24.48;45.71;99952.57;2338506;75;50801;-76
2023/07/28 13:42:58;;;;;;;;;;;;;;;24.40;46.04;99955.63;2312785;76;50587;-75
2023/07/28 13:46:00;;;;;;;;;;;;;;;24.45;45.96;99955.77;2312914;76;51407;-75
2023/07/28 13:49:01;;;;;;;;;;;;;;;24.48;45.93;99955.28;2339948;75;50630;-75
2023/07/28 13:52:03;;;;;;;;;;;;;;;24.41;46.14;99956.75;2311256;76;51417;-75
2023/07/28 13:55:05;;;;;;;;;;;;;;;24.40;46.16;99951.03;2314198;75;51700;-75
2023/07/28 13:58:07;;;;;;;;;;;;;;;24.40;46.21;99957.79;2288504;76;51089;-75
2023/07/28 14:01:08;;;;;;;;;;;;;;;24.41;46.23;99963.51;2314621;76;50556;-75
2023/07/28 14:04:10;;;;;;;;;;;;;;;24.40;46.22;99956.44;2336624;75;50592;-75
2023/07/28 14:07:11;;;;;;;;;;;;;;;24.39;46.31;99961.56;2314239;76;52459;-75
2023/07/28 14:10:13;;;;;;;;;;;;;;;24.40;46.29;99965.09;2336760;76;51567;-75
2023/07/28 14:13:15;;;;;;;;;;;;;;;24.41;46.34;99972.97;2336752;76;51430;-76
2023/07/28 14:16:16;;;;;;;;;;;;;;;24.41;46.29;99966.22;2336332;75;51369;-75
2023/07/28 14:19:18;;;;;;;;;;;;;;;24.39;46.40;99980.50;2313315;76;52286;-75
2023/07/28 14:22:19;;;;;;;;;;;;;;;24.40;46.35;99969.14;2297114;76;50361;-76
2023/07/28 14:25:21;;;;;;;;;;;;;;;24.39;46.42;99969.68;2259611;76;50593;-74
2023/07/28 14:28:22;;;;;;;;;;;;;;;24.42;46.28;99970.55;2292418;76;50354;-75
2023/07/28 14:31:24;;;;;;;;;;;;;;;24.45;46.21;99976.86;2292686;76;50605;-75
2023/07/28 14:34:26;;;;;;;;;;;;;;;24.47;46.22;99976.09;2292701;76;50591;-75
2023/07/28 14:37:27;;;;;;;;;;;;;;;24.49;46.17;99979.39;2259219;76;50326;-75
2023/07/28 14:40:29;;;;;;;;;;;;;;;24.46;46.40;99973.65;2283953;76;50591;-75
2023/07/28 14:43:30;;;;;;;;;;;;;;;24.46;46.36;99973.11;2233430;77;51424;-76
2023/07/28 14:46:32;;;;;;;;;;;;;;;24.43;46.47;99972.72;2277407;77;50334;-75
2023/07/28 14:49:34;;;;;;;;;;;;;;;24.42;46.46;99971.09;2289730;76;50568;-76
2023/07/28 14:52:35;;;;;;;;;;;;;;;24.46;46.25;99971.77;2321896;76;50063;-76
2023/07/28 14:55:37;;;;;;;;;;;;;;;24.48;46.04;99972.86;2321281;75;50332;-76
2023/07/28 14:58:40;;;;;;;;;;;;;;;24.50;45.80;99970.20;2321191;76;50303;-76
2023/07/28 15:01:42;;;;;;;;;;;;;;;24.51;45.78;99961.05;2321749;76;24573;-76
2023/07/28 15:04:45;;;;;;;;;;;;;;;24.52;45.80;99966.73;2321284;76;51416;-76
2023/07/28 15:07:46;;;;;;;;;;;;;;;24.54;45.75;99971.38;2283461;76;50940;-76
2023/07/28 15:10:48;;;;;;;;;;;;;;;24.53;46.06;99965.70;2309250;76;49923;-76
2023/07/28 15:13:50;;;;;;;;;;;;;;;24.51;45.90;99970.52;2321373;76;50193;-76
2023/07/28 15:16:51;;;;;;;;;;;;;;;24.50;45.99;99970.20;2309035;76;50321;-76
2023/07/28 15:19:53;;;;;;;;;;;;;;;24.48;45.90;99979.62;2321297;76;50314;-76
2023/07/28 15:22:54;;;;;;;;;;;;;;;24.49;45.77;99978.04;2295091;76;50703;-76
2023/07/28 15:25:59;;;;;;;;;;;;;;;24.49;45.83;99983.45;2319556;75;51464;-76
2023/07/28 15:29:01;;;;;;;;;;;;;;;24.49;45.80;99983.45;2319272;76;50687;-76
2023/07/28 15:32:02;;;;;;;;;;;;;;;24.48;45.82;99992.63;2270093;76;51124;-76
2023/07/28 15:35:04;;;;;;;;;;;;;;;24.48;45.62;100000.75;2295090;75;51382;-76
2023/07/28 15:38:06;;;;;;;;;;;;;;;24.49;45.69;100005.62;2294777;76;51445;-75
2023/07/28 15:41:07;;;;;;;;;;;;;;;24.48;45.62;100002.60;2315439;76;51364;-75
2023/07/28 15:44:09;;;;;;;;;;;;;;;24.45;45.81;100002.55;2257428;77;51072;-76
2023/07/28 15:47:11;;;;;;;;;;;;;;;24.46;45.79;100004.21;2281985;77;51523;-76